Latest Weather Observations for Beaudesert AWS

IDQ60801

Issued at 9:32 pm EST Friday 24 March 2017 (issued every 30 minutes, with the page automatically refreshed every 10 minutes)

About weather observations | Map of weather stations | Latest weather observations for QLD | Other Formats
Station Details ID: 040983 Name: BEAUDESERT DRUMLEY STREET Lat: -27.97 Lon: 152.99 Height: 47.81 m
Data from the previous 72 hours. | See also: Recent months at Beaudesert AWS
Date/Time
EST
Temp
°C
App
Temp
°C
Dew
Point
°C
Rel
Hum
%
Delta-T
°C
Wind Press
QNH
hPa
Press
MSL
hPa
Rain since
9am
mm
Dir  Spd
km/h
Gust
km/h
Spd
kts
Gust
kts
24/09:30pm 22.6 25.4 19.6 83 1.9 SSW 4 6 2 3 1017.0 1016.8 0.2
24/09:00pm 22.8 25.6 19.6 82 2.0 SSW 4 6 2 3 1016.6 1016.4 0.2
24/08:30pm 22.9 26.5 19.7 82 2.1 CALM 0 2 0 1 1016.6 1016.4 0.2
24/08:00pm 23.2 26.1 19.8 81 2.2 S 4 7 2 4 1016.4 1016.2 0.2
24/07:30pm 23.6 26.0 19.7 79 2.5 SSW 6 11 3 6 1016.0 1015.8 0.2
24/07:00pm 24.2 26.0 19.5 75 3.0 S 9 15 5 8 1015.4 1015.2 0.2
24/06:30pm 25.2 27.3 20.2 74 3.3 SSE 9 17 5 9 1015.1 1014.9 0.2
24/06:00pm 25.8 27.8 20.8 74 3.3 SE 11 17 6 9 1014.8 1014.6 0.2
24/05:30pm 25.4 28.6 21.3 78 2.7 SE 6 9 3 5 1014.3 1014.1 0.2
24/05:00pm 25.7 28.5 21.6 78 2.7 E 9 13 5 7 1013.8 1013.6 0.2
24/04:30pm 26.3 28.6 21.3 74 3.3 E 11 20 6 11 1013.7 1013.5 0.2
24/04:00pm 27.3 29.3 21.6 71 3.8 E 13 22 7 12 1013.4 1013.2 0.2
24/03:30pm 28.2 30.9 22.2 70 4.1 E 11 17 6 9 1013.3 1013.1 0.2
24/03:00pm 27.5 30.0 21.8 71 3.8 ESE 11 19 6 10 1013.2 1013.0 0.2
24/02:30pm 28.1 30.7 21.9 69 4.2 NE 11 17 6 9 1013.3 1013.1 0.2
24/02:00pm 28.0 31.5 22.2 70 3.9 ENE 7 13 4 7 1013.5 1013.3 0.2
24/01:30pm 27.6 30.9 21.9 71 3.8 ENE 7 13 4 7 1013.8 1013.6 0.2
24/01:00pm 28.9 32.3 20.9 62 5.3 SSE 4 9 2 5 1014.1 1013.9 0.2
24/12:30pm 28.7 31.8 21.0 63 5.1 SSE 6 9 3 5 1014.6 1014.4 0.2
24/12:00pm 28.4 31.5 21.4 66 4.7 SSW 7 13 4 7 1015.2 1015.0 0.2
24/11:30am 29.0 32.2 21.7 64 4.9 SSW 7 13 4 7 1015.5 1015.3 0.2
24/11:00am 28.5 32.4 21.8 67 4.5 S 4 9 2 5 1015.8 1015.6 0.2
24/10:30am 27.6 30.6 20.9 67 4.4 SW 6 11 3 6 1016.3 1016.1 0.2
24/10:00am 27.1 30.8 21.4 71 3.8 W 4 7 2 4 1016.4 1016.2 0.2
24/09:30am 26.9 31.0 21.6 72 3.5 NW 2 6 1 3 1016.5 1016.3 0.2
24/09:00am 25.8 29.9 21.5 77 2.9 WSW 2 6 1 3 1016.5 1016.3 1.6
24/08:30am 24.7 28.5 21.6 83 2.1 SSW 4 7 2 4 1016.4 1016.2 1.6
24/08:00am 24.2 28.0 20.9 82 2.2 NW 2 4 1 2 1016.2 1016.0 1.6
24/07:30am 23.4 28.1 22.0 92 0.9 CALM 0 0 0 0 1015.8 1015.6 1.6
24/07:00am 22.1 26.8 21.9 99 0.1 CALM 0 0 0 0 1015.8 1015.6 1.6
24/06:30am 21.5 25.9 21.3 99 0.1 CALM 0 2 0 1 1015.5 1015.3 1.6
24/06:00am 21.1 25.3 20.9 99 0.1 CALM 0 0 0 0 1015.1 1014.9 1.6
24/05:30am 21.0 25.1 20.8 99 0.1 CALM 0 0 0 0 1014.9 1014.7 1.6
24/05:00am 21.0 25.1 20.8 99 0.1 CALM 0 0 0 0 1014.6 1014.4 1.6
24/04:30am 21.2 25.4 21.0 99 0.1 CALM 0 0 0 0 1014.4 1014.2 1.6
24/04:00am 21.2 25.4 21.0 99 0.1 CALM 0 0 0 0 1014.4 1014.2 1.6
24/03:30am 21.2 25.4 21.0 99 0.1 CALM 0 0 0 0 1014.4 1014.2 1.6
24/03:00am 21.3 25.6 21.1 99 0.1 CALM 0 0 0 0 1014.4 1014.2 1.6
24/02:30am 21.2 25.4 21.0 99 0.1 CALM 0 0 0 0 1014.6 1014.4 1.6
24/02:00am 21.3 25.2 21.1 99 0.1 SSE 2 4 1 2 1014.9 1014.7 1.6
24/01:30am 21.5 25.5 21.3 99 0.1 SSW 2 4 1 2 1015.6 1015.4 1.0
24/01:00am 21.6 26.0 21.4 99 0.1 CALM 0 0 0 0 1015.7 1015.5 1.0
24/12:30am 21.4 25.7 21.1 98 0.2 CALM 0 0 0 0 1015.9 1015.7 1.0
24/12:00am 21.7 26.1 21.4 98 0.2 CALM 0 0 0 0 1015.7 1015.5 1.0
 
Date/Time
EST
Temp
°C
App
Temp
°C
Dew
Point
°C
Rel
Hum
%
Delta-T
°C
Wind Press
QNH
hPa
Press
MSL
hPa
Rain since
9am
mm
Dir  Spd
km/h
Gust
km/h
Spd
kts
Gust
kts
23/11:30pm 21.8 26.3 21.5 98 0.2 CALM 0 0 0 0 1015.9 1015.7 1.0
23/11:00pm 21.8 26.3 21.5 98 0.2 CALM 0 0 0 0 1016.0 1015.8 1.0
23/10:30pm 21.7 26.1 21.4 98 0.2 CALM 0 0 0 0 1016.4 1016.2 1.0
23/10:00pm 21.5 24.9 21.0 97 0.3 SW 4 4 2 2 1016.6 1016.4 0.8
23/09:30pm 21.6 25.8 20.9 96 0.5 CALM 0 0 0 0 1016.6 1016.4 0.8
23/09:00pm 21.5 24.5 20.8 96 0.5 SSE 6 7 3 4 1016.7 1016.5 0.8
23/08:30pm 21.7 24.6 20.7 94 0.6 SW 6 11 3 6 1016.8 1016.6 0.6
23/08:00pm 22.2 25.2 20.8 92 0.9 SW 6 9 3 5 1016.5 1016.3 0.2
23/07:30pm 23.9 26.2 20.6 82 2.2 SSW 9 13 5 7 1016.0 1015.8 0.0
23/07:00pm 25.4 29.6 21.7 80 2.5 ESE 2 4 1 2 1015.6 1015.4 0.0
23/06:30pm 25.9 28.9 21.3 76 3.1 ENE 7 9 4 5 1015.2 1015.0 0.0
23/06:00pm 26.4 29.0 21.2 73 3.4 ENE 9 17 5 9 1015.0 1014.8 0.0
23/05:30pm 26.9 29.9 21.2 71 3.8 ENE 7 13 4 7 1014.6 1014.4 0.0
23/05:00pm 27.5 30.3 20.8 67 4.4 NE 7 13 4 7 1014.3 1014.1 0.0
23/04:30pm 27.9 31.0 21.0 66 4.6 ENE 6 11 3 6 1014.0 1013.8 0.0
23/04:00pm 28.3 30.9 19.2 57 5.9 NNE 4 7 2 4 1013.8 1013.6 0.0
23/03:30pm 28.5 30.7 19.7 59 5.7 N 7 11 4 6 1013.6 1013.4 0.0
23/03:00pm 28.5 30.9 20.0 60 5.6 NNE 7 11 4 6 1013.8 1013.6 0.0
23/02:30pm 28.6 31.1 21.1 64 5.0 NNE 9 17 5 9 1013.9 1013.7 0.0
23/02:00pm 29.1 32.6 22.1 66 4.7 NNE 7 17 4 9 1013.9 1013.7 0.0
23/01:30pm 29.3 31.5 21.8 64 5.1 N 13 19 7 10 1014.1 1013.9 0.0
23/01:00pm 29.1 31.6 21.1 62 5.3 N 9 15 5 8 1014.5 1014.3 0.0
23/12:30pm 29.5 32.5 21.2 61 5.6 N 7 17 4 9 1014.9 1014.7 0.0
23/12:00pm 29.4 31.8 20.0 57 6.2 N 7 13 4 7 1015.3 1015.1 0.0
23/11:30am 28.8 32.4 22.1 67 4.5 NW 6 13 3 7 1015.9 1015.7 0.0
23/11:00am 28.6 32.1 21.9 67 4.5 N 6 9 3 5 1016.2 1016.0 0.0
23/10:30am 27.9 31.6 22.6 73 3.6 NNW 7 11 4 6 1016.3 1016.1 0.0
23/10:00am 26.6 30.8 23.1 81 2.4 NW 6 7 3 4 1016.7 1016.5 0.0
23/09:30am 26.6 32.2 23.5 83 2.1 CALM 0 4 0 2 1016.7 1016.5 0.0
23/09:00am 25.6 30.9 23.7 89 1.3 WSW 2 6 1 3 1016.7 1016.5 3.6
23/08:30am 24.6 30.7 24.4 99 0.1 CALM 0 0 0 0 1016.6 1016.4 3.6
23/08:00am 23.2 28.5 23.0 99 0.1 CALM 0 2 0 1 1016.4 1016.2 3.6
23/07:30am 22.5 27.4 22.3 99 0.1 CALM 0 4 0 2 1015.9 1015.7 3.6
23/07:00am 22.1 26.4 21.9 99 0.1 SSW 2 2 1 1 1015.6 1015.4 3.6
23/06:30am 22.0 26.6 21.8 99 0.1 CALM 0 0 0 0 1015.2 1015.0 3.6
23/06:00am 21.9 26.5 21.7 99 0.1 CALM 0 0 0 0 1015.2 1015.0 3.6
23/05:30am 21.8 25.9 21.6 99 0.1 ENE 2 4 1 2 1015.0 1014.8 3.6
23/05:00am 22.0 26.6 21.8 99 0.1 CALM 0 0 0 0 1014.9 1014.7 3.6
23/04:30am 21.9 26.5 21.7 99 0.1 CALM 0 0 0 0 1014.7 1014.5 3.6
23/04:00am 21.8 26.3 21.6 99 0.1 CALM 0 0 0 0 1014.5 1014.3 3.6
23/03:30am 21.9 26.5 21.7 99 0.1 CALM 0 0 0 0 1014.3 1014.1 3.6
23/03:00am 21.9 26.5 21.7 99 0.1 CALM 0 0 0 0 1014.4 1014.2 3.6
23/02:30am 21.9 26.5 21.7 99 0.1 CALM 0 0 0 0 1014.6 1014.4 3.6
23/02:00am 21.6 26.0 21.4 99 0.1 CALM 0 0 0 0 1014.7 1014.5 3.6
23/01:30am 21.6 26.0 21.4 99 0.1 CALM 0 0 0 0 1014.9 1014.7 3.6
23/01:00am 22.2 26.9 22.0 99 0.1 CALM 0 0 0 0 1015.2 1015.0 3.6
23/12:30am 22.0 26.6 21.8 99 0.1 CALM 0 0 0 0 1015.4 1015.2 3.6
23/12:00am 22.3 27.1 22.1 99 0.1 CALM 0 0 0 0 1015.6 1015.4 3.6
 
Date/Time
EST
Temp
°C
App
Temp
°C
Dew
Point
°C
Rel
Hum
%
Delta-T
°C
Wind Press
QNH
hPa
Press
MSL
hPa
Rain since
9am
mm
Dir  Spd
km/h
Gust
km/h
Spd
kts
Gust
kts
22/11:30pm 22.4 27.2 22.2 99 0.1 CALM 0 0 0 0 1015.8 1015.6 3.6
22/11:00pm 22.3 27.0 22.0 98 0.2 CALM 0 0 0 0 1015.9 1015.7 3.6
22/10:30pm 22.8 27.8 22.5 98 0.2 CALM 0 0 0 0 1016.0 1015.8 3.6
22/10:00pm 22.7 27.3 22.4 98 0.2 SE 2 2 1 1 1016.0 1015.8 3.6
22/09:30pm 22.8 27.7 22.3 97 0.3 CALM 0 0 0 0 1016.3 1016.1 3.6
22/09:00pm 22.9 27.1 22.4 97 0.3 SSE 4 6 2 3 1016.3 1016.1 3.6
22/08:30pm 23.1 28.0 22.4 96 0.5 CALM 0 2 0 1 1015.9 1015.7 3.6
22/08:00pm 23.1 27.6 22.3 95 0.5 NE 2 4 1 2 1015.5 1015.3 3.6
22/07:30pm 23.5 28.2 22.7 95 0.5 NE 2 2 1 1 1015.4 1015.2 3.6
22/07:00pm 23.5 28.5 22.5 94 0.7 CALM 0 0 0 0 1015.2 1015.0 3.6
22/06:30pm 23.7 28.6 22.3 92 0.9 CALM 0 0 0 0 1015.0 1014.8 3.4
22/06:00pm 23.9 28.7 22.2 90 1.1 CALM 0 0 0 0 1014.8 1014.6 3.4
22/05:30pm 24.3 29.0 22.0 87 1.5 CALM 0 0 0 0 1014.6 1014.4 3.4
22/05:00pm 24.5 29.2 22.0 86 1.7 CALM 0 0 0 0 1014.3 1014.1 3.4
22/04:30pm 24.5 29.2 22.0 86 1.7 CALM 0 0 0 0 1014.3 1014.1 3.4
22/04:00pm 24.3 29.1 22.2 88 1.4 CALM 0 4 0 2 1014.4 1014.2 3.4
22/03:30pm 24.1 28.7 22.5 91 1.1 NW 2 2 1 1 1014.3 1014.1 3.4
22/03:00pm 23.8 28.3 22.2 91 1.1 WNW 2 6 1 3 1014.2 1014.0 3.4
22/02:30pm 23.5 27.0 21.8 90 1.1 WNW 6 9 3 5 1014.5 1014.3 2.8
22/02:00pm 23.7 27.3 22.1 91 1.1 NW 6 9 3 5 1014.4 1014.2 2.8
22/01:30pm 24.4 27.2 21.5 84 1.9 NW 9 13 5 7 1014.3 1014.1 2.0
22/01:00pm 27.9 31.3 21.7 69 4.2 W 6 9 3 5 1014.3 1014.1 0.0
22/12:30pm 27.6 31.6 22.1 72 3.7 W 4 6 2 3 1014.8 1014.6 0.0
22/12:00pm 27.5 31.6 22.2 73 3.6 NW 4 7 2 4 1015.1 1014.9 0.0
22/11:30am 27.1 31.0 22.5 76 3.1 NW 6 9 3 5 1015.5 1015.3 0.0
22/11:00am 26.5 30.1 22.1 77 3.0 WNW 6 9 3 5 1015.9 1015.7 0.0
22/10:30am 26.9 30.6 21.4 72 3.7 NW 4 7 2 4 1016.0 1015.8 0.0
22/10:00am 25.9 30.1 22.4 81 2.4 NNW 4 7 2 4 1016.3 1016.1 0.0
22/09:30am 24.9 28.8 22.6 87 1.5 WNW 6 9 3 5 1016.6 1016.4 0.0
22/09:00am 24.5 28.2 22.2 87 1.5 NW 6 13 3 7 1016.8 1016.6 0.0
22/08:30am 24.5 29.2 22.6 89 1.3 SW 2 4 1 2 1016.8 1016.6 0.0
22/08:00am 23.4 28.2 22.2 93 0.8 CALM 0 4 0 2 1016.6 1016.4 0.0
22/07:30am 23.1 27.6 22.3 95 0.5 S 2 4 1 2 1016.5 1016.3 0.0
22/07:00am 22.6 27.4 22.1 97 0.3 CALM 0 0 0 0 1016.2 1016.0 0.0
22/06:30am 22.2 26.8 21.7 97 0.3 CALM 0 0 0 0 1015.9 1015.7 0.0
22/06:00am 22.0 26.5 21.5 97 0.3 CALM 0 2 0 1 1015.6 1015.4 0.0
22/05:30am 21.9 25.9 21.4 97 0.3 SSE 2 4 1 2 1015.5 1015.3 0.0
22/05:00am 21.9 26.3 21.4 97 0.3 CALM 0 4 0 2 1015.2 1015.0 0.0
22/04:30am 21.9 26.3 21.4 97 0.3 CALM 0 0 0 0 1015.1 1014.9 0.0
22/04:00am 22.1 26.5 21.4 96 0.5 CALM 0 0 0 0 1014.9 1014.7 0.0
22/03:30am 22.1 26.5 21.3 95 0.5 CALM 0 2 0 1 1014.8 1014.6 0.0
22/03:00am 22.2 26.6 21.4 95 0.5 CALM 0 2 0 1 1014.8 1014.6 0.0
22/02:30am 22.3 26.7 21.3 94 0.7 CALM 0 0 0 0 1015.0 1014.8 0.0
22/02:00am 22.4 26.4 21.4 94 0.7 SE 2 4 1 2 1015.2 1015.0 0.0
22/01:30am 22.5 27.0 21.5 94 0.7 CALM 0 0 0 0 1015.4 1015.2 0.0
22/01:00am 22.3 26.7 21.3 94 0.7 CALM 0 0 0 0 1015.7 1015.5 0.0
22/12:30am 22.5 26.9 21.3 93 0.8 CALM 0 4 0 2 1016.0 1015.8 0.0
22/12:00am 22.6 27.0 21.4 93 0.8 CALM 0 0 0 0 1016.3 1016.1 0.0
 
Date/Time
EST
Temp
°C
App
Temp
°C
Dew
Point
°C
Rel
Hum
%
Delta-T
°C
Wind Press
QNH
hPa
Press
MSL
hPa
Rain since
9am
mm
Dir  Spd
km/h
Gust
km/h
Spd
kts
Gust
kts
21/11:30pm 22.6 26.9 21.2 92 0.9 CALM 0 0 0 0 1016.2 1016.0 0.0
21/11:00pm 22.9 27.3 21.4 91 1.0 CALM 0 0 0 0 1016.4 1016.2 0.0
21/10:30pm 23.1 27.4 21.2 89 1.2 CALM 0 2 0 1 1016.5 1016.3 0.0
21/10:00pm 23.4 26.8 21.7 90 1.1 ENE 6 11 3 6 1016.5 1016.3 0.0

Other Formats:

Comma delimited format used in spreadsheet applications
http://www.bom.gov.au/fwo/IDQ60801/IDQ60801.95575.axf

JavaScript Object Notation format (JSON) in row-major order
http://www.bom.gov.au/fwo/IDQ60801/IDQ60801.95575.json